sensor_id;sensor_type;location;lat;lon;timestamp;P1;durP1;ratioP1;P2;durP2;ratioP2
18360;SDS011;9308;48.550;9.108;2022-12-07T00:01:42;9.17;;;8.23;;
18360;SDS011;9308;48.550;9.108;2022-12-07T00:04:11;9.33;;;8.33;;
18360;SDS011;9308;48.550;9.108;2022-12-07T00:06:39;9.37;;;8.53;;
18360;SDS011;9308;48.550;9.108;2022-12-07T00:09:07;9.77;;;8.87;;
18360;SDS011;9308;48.550;9.108;2022-12-07T00:11:35;9.70;;;8.80;;
18360;SDS011;9308;48.550;9.108;2022-12-07T00:14:02;9.53;;;8.60;;
18360;SDS011;9308;48.550;9.108;2022-12-07T00:16:31;9.57;;;8.60;;
18360;SDS011;9308;48.550;9.108;2022-12-07T00:18:59;9.80;;;8.90;;
18360;SDS011;9308;48.550;9.108;2022-12-07T00:21:29;10.30;;;9.30;;
18360;SDS011;9308;48.550;9.108;2022-12-07T00:23:56;10.50;;;9.50;;
18360;SDS011;9308;48.550;9.108;2022-12-07T00:26:26;11.30;;;10.30;;
18360;SDS011;9308;48.550;9.108;2022-12-07T00:28:57;10.20;;;9.17;;
18360;SDS011;9308;48.550;9.108;2022-12-07T00:31:28;9.57;;;8.67;;
18360;SDS011;9308;48.550;9.108;2022-12-07T00:33:55;10.17;;;9.20;;
18360;SDS011;9308;48.550;9.108;2022-12-07T00:36:22;9.87;;;8.87;;
18360;SDS011;9308;48.550;9.108;2022-12-07T00:38:48;10.03;;;9.03;;
18360;SDS011;9308;48.550;9.108;2022-12-07T00:41:15;10.53;;;9.40;;
18360;SDS011;9308;48.550;9.108;2022-12-07T00:43:42;10.70;;;9.67;;
18360;SDS011;9308;48.550;9.108;2022-12-07T00:46:09;9.70;;;8.80;;
18360;SDS011;9308;48.550;9.108;2022-12-07T00:48:35;10.13;;;9.17;;
18360;SDS011;9308;48.550;9.108;2022-12-07T00:51:00;9.60;;;8.40;;
18360;SDS011;9308;48.550;9.108;2022-12-07T00:53:27;9.20;;;8.30;;
18360;SDS011;9308;48.550;9.108;2022-12-07T00:55:52;9.67;;;8.77;;
18360;SDS011;9308;48.550;9.108;2022-12-07T00:58:18;9.93;;;8.97;;
18360;SDS011;9308;48.550;9.108;2022-12-07T01:00:44;10.40;;;9.47;;
18360;SDS011;9308;48.550;9.108;2022-12-07T01:03:11;9.00;;;8.17;;
18360;SDS011;9308;48.550;9.108;2022-12-07T01:05:38;9.37;;;8.47;;
18360;SDS011;9308;48.550;9.108;2022-12-07T01:08:04;9.53;;;8.73;;
18360;SDS011;9308;48.550;9.108;2022-12-07T01:10:30;10.07;;;9.10;;
18360;SDS011;9308;48.550;9.108;2022-12-07T01:12:57;11.30;;;10.10;;
18360;SDS011;9308;48.550;9.108;2022-12-07T01:15:24;9.60;;;8.80;;
18360;SDS011;9308;48.550;9.108;2022-12-07T01:17:50;9.63;;;8.73;;
18360;SDS011;9308;48.550;9.108;2022-12-07T01:20:15;11.10;;;9.47;;
18360;SDS011;9308;48.550;9.108;2022-12-07T01:22:41;10.17;;;9.17;;
18360;SDS011;9308;48.550;9.108;2022-12-07T01:25:08;11.00;;;9.80;;
18360;SDS011;9308;48.550;9.108;2022-12-07T01:27:34;10.20;;;9.30;;
18360;SDS011;9308;48.550;9.108;2022-12-07T01:30:01;10.53;;;8.50;;
18360;SDS011;9308;48.550;9.108;2022-12-07T01:32:28;10.43;;;9.43;;
18360;SDS011;9308;48.550;9.108;2022-12-07T01:34:54;10.23;;;8.73;;
18360;SDS011;9308;48.550;9.108;2022-12-07T01:37:19;11.53;;;10.23;;
18360;SDS011;9308;48.550;9.108;2022-12-07T01:39:47;10.10;;;9.10;;
18360;SDS011;9308;48.550;9.108;2022-12-07T01:42:13;11.30;;;10.10;;
18360;SDS011;9308;48.550;9.108;2022-12-07T01:47:18;10.93;;;9.83;;
18360;SDS011;9308;48.550;9.108;2022-12-07T01:49:44;10.43;;;9.00;;
18360;SDS011;9308;48.550;9.108;2022-12-07T01:52:20;10.13;;;9.13;;
18360;SDS011;9308;48.550;9.108;2022-12-07T01:54:51;11.30;;;10.10;;
18360;SDS011;9308;48.550;9.108;2022-12-07T01:57:20;12.33;;;10.67;;
18360;SDS011;9308;48.550;9.108;2022-12-07T01:59:47;11.27;;;10.13;;
18360;SDS011;9308;48.550;9.108;2022-12-07T02:02:18;10.70;;;9.70;;
18360;SDS011;9308;48.550;9.108;2022-12-07T02:04:48;11.30;;;10.10;;
18360;SDS011;9308;48.550;9.108;2022-12-07T02:07:14;11.10;;;10.00;;
18360;SDS011;9308;48.550;9.108;2022-12-07T02:09:40;10.87;;;9.83;;
18360;SDS011;9308;48.550;9.108;2022-12-07T02:12:06;10.23;;;9.07;;
18360;SDS011;9308;48.550;9.108;2022-12-07T02:14:31;10.20;;;9.20;;
18360;SDS011;9308;48.550;9.108;2022-12-07T02:17:06;9.73;;;8.93;;
18360;SDS011;9308;48.550;9.108;2022-12-07T02:27:47;10.07;;;9.10;;
18360;SDS011;9308;48.550;9.108;2022-12-07T02:30:19;10.43;;;8.83;;
18360;SDS011;9308;48.550;9.108;2022-12-07T02:32:49;10.40;;;9.50;;
18360;SDS011;9308;48.550;9.108;2022-12-07T02:35:22;11.10;;;9.93;;
18360;SDS011;9308;48.550;9.108;2022-12-07T02:38:04;10.00;;;9.07;;
18360;SDS011;9308;48.550;9.108;2022-12-07T02:40:43;11.10;;;10.00;;
18360;SDS011;9308;48.550;9.108;2022-12-07T02:43:25;10.67;;;9.57;;
18360;SDS011;9308;48.550;9.108;2022-12-07T02:46:02;11.00;;;10.00;;
18360;SDS011;9308;48.550;9.108;2022-12-07T02:48:32;11.40;;;10.30;;
18360;SDS011;9308;48.550;9.108;2022-12-07T02:50:58;11.57;;;10.33;;
18360;SDS011;9308;48.550;9.108;2022-12-07T02:53:37;12.43;;;11.13;;
18360;SDS011;9308;48.550;9.108;2022-12-07T02:58:54;13.10;;;11.80;;
18360;SDS011;9308;48.550;9.108;2022-12-07T03:01:28;12.90;;;11.70;;
18360;SDS011;9308;48.550;9.108;2022-12-07T03:04:08;12.10;;;10.90;;
18360;SDS011;9308;48.550;9.108;2022-12-07T03:06:49;11.77;;;10.57;;
18360;SDS011;9308;48.550;9.108;2022-12-07T03:09:23;13.10;;;11.80;;
18360;SDS011;9308;48.550;9.108;2022-12-07T03:12:07;12.57;;;11.27;;
18360;SDS011;9308;48.550;9.108;2022-12-07T03:15:02;12.40;;;11.10;;
18360;SDS011;9308;48.550;9.108;2022-12-07T03:17:31;11.47;;;10.37;;
18360;SDS011;9308;48.550;9.108;2022-12-07T03:20:00;13.57;;;11.03;;
18360;SDS011;9308;48.550;9.108;2022-12-07T03:22:29;14.27;;;11.83;;
18360;SDS011;9308;48.550;9.108;2022-12-07T03:25:00;12.10;;;10.73;;
18360;SDS011;9308;48.550;9.108;2022-12-07T03:30:07;13.27;;;11.97;;
18360;SDS011;9308;48.550;9.108;2022-12-07T03:35:29;16.27;;;11.50;;
18360;SDS011;9308;48.550;9.108;2022-12-07T03:38:00;12.20;;;11.10;;
18360;SDS011;9308;48.550;9.108;2022-12-07T03:40:33;12.80;;;10.83;;
18360;SDS011;9308;48.550;9.108;2022-12-07T03:43:04;13.40;;;11.80;;
18360;SDS011;9308;48.550;9.108;2022-12-07T03:45:38;12.30;;;10.73;;
18360;SDS011;9308;48.550;9.108;2022-12-07T03:48:52;12.80;;;11.60;;
18360;SDS011;9308;48.550;9.108;2022-12-07T03:51:08;14.47;;;12.50;;
18360;SDS011;9308;48.550;9.108;2022-12-07T03:53:46;12.47;;;10.97;;
18360;SDS011;9308;48.550;9.108;2022-12-07T03:56:17;12.47;;;11.17;;
18360;SDS011;9308;48.550;9.108;2022-12-07T03:58:44;13.40;;;12.00;;
18360;SDS011;9308;48.550;9.108;2022-12-07T04:01:09;14.17;;;12.77;;
18360;SDS011;9308;48.550;9.108;2022-12-07T04:03:35;14.60;;;12.20;;
18360;SDS011;9308;48.550;9.108;2022-12-07T04:06:00;13.33;;;11.27;;
18360;SDS011;9308;48.550;9.108;2022-12-07T04:08:26;12.50;;;11.20;;
18360;SDS011;9308;48.550;9.108;2022-12-07T04:10:52;13.77;;;12.27;;
18360;SDS011;9308;48.550;9.108;2022-12-07T04:13:17;12.57;;;11.17;;
18360;SDS011;9308;48.550;9.108;2022-12-07T04:15:43;12.37;;;11.03;;
18360;SDS011;9308;48.550;9.108;2022-12-07T04:18:08;12.73;;;11.43;;
18360;SDS011;9308;48.550;9.108;2022-12-07T04:20:34;12.23;;;10.90;;
18360;SDS011;9308;48.550;9.108;2022-12-07T04:22:59;13.40;;;12.03;;
18360;SDS011;9308;48.550;9.108;2022-12-07T04:25:25;12.00;;;10.80;;
18360;SDS011;9308;48.550;9.108;2022-12-07T04:27:50;12.93;;;11.60;;
18360;SDS011;9308;48.550;9.108;2022-12-07T04:30:16;15.73;;;13.10;;
18360;SDS011;9308;48.550;9.108;2022-12-07T04:32:41;13.23;;;11.73;;
18360;SDS011;9308;48.550;9.108;2022-12-07T04:35:07;12.47;;;11.17;;
18360;SDS011;9308;48.550;9.108;2022-12-07T04:37:33;12.30;;;10.90;;
18360;SDS011;9308;48.550;9.108;2022-12-07T04:39:58;12.67;;;11.33;;
18360;SDS011;9308;48.550;9.108;2022-12-07T04:42:24;12.63;;;11.30;;
18360;SDS011;9308;48.550;9.108;2022-12-07T04:44:49;14.90;;;11.97;;
18360;SDS011;9308;48.550;9.108;2022-12-07T04:47:15;12.70;;;11.40;;
18360;SDS011;9308;48.550;9.108;2022-12-07T04:49:41;12.97;;;10.93;;
18360;SDS011;9308;48.550;9.108;2022-12-07T04:52:07;11.90;;;10.70;;
18360;SDS011;9308;48.550;9.108;2022-12-07T04:54:32;12.77;;;11.47;;
18360;SDS011;9308;48.550;9.108;2022-12-07T04:56:58;12.20;;;11.00;;
18360;SDS011;9308;48.550;9.108;2022-12-07T04:59:23;13.13;;;11.70;;
18360;SDS011;9308;48.550;9.108;2022-12-07T05:01:49;13.87;;;11.80;;
18360;SDS011;9308;48.550;9.108;2022-12-07T05:04:15;13.37;;;11.50;;
18360;SDS011;9308;48.550;9.108;2022-12-07T05:06:41;15.73;;;12.07;;
18360;SDS011;9308;48.550;9.108;2022-12-07T05:09:06;14.77;;;12.07;;
18360;SDS011;9308;48.550;9.108;2022-12-07T05:11:32;13.70;;;11.87;;
18360;SDS011;9308;48.550;9.108;2022-12-07T05:14:04;12.90;;;11.50;;
18360;SDS011;9308;48.550;9.108;2022-12-07T05:16:43;14.97;;;12.70;;
18360;SDS011;9308;48.550;9.108;2022-12-07T05:19:10;13.47;;;12.07;;
18360;SDS011;9308;48.550;9.108;2022-12-07T05:21:36;12.87;;;11.53;;
18360;SDS011;9308;48.550;9.108;2022-12-07T05:24:02;13.40;;;12.07;;
18360;SDS011;9308;48.550;9.108;2022-12-07T05:26:29;15.13;;;12.10;;
18360;SDS011;9308;48.550;9.108;2022-12-07T05:28:55;13.73;;;12.17;;
18360;SDS011;9308;48.550;9.108;2022-12-07T05:31:21;15.63;;;13.17;;
18360;SDS011;9308;48.550;9.108;2022-12-07T05:33:48;17.40;;;12.90;;
18360;SDS011;9308;48.550;9.108;2022-12-07T05:36:14;15.03;;;13.43;;
18360;SDS011;9308;48.550;9.108;2022-12-07T05:38:40;14.23;;;12.73;;
18360;SDS011;9308;48.550;9.108;2022-12-07T05:41:06;13.90;;;12.50;;
18360;SDS011;9308;48.550;9.108;2022-12-07T05:43:53;14.80;;;13.20;;
18360;SDS011;9308;48.550;9.108;2022-12-07T05:46:18;15.10;;;13.60;;
18360;SDS011;9308;48.550;9.108;2022-12-07T05:48:44;16.00;;;13.57;;
18360;SDS011;9308;48.550;9.108;2022-12-07T05:51:09;14.80;;;13.30;;
18360;SDS011;9308;48.550;9.108;2022-12-07T05:53:34;16.17;;;13.90;;
18360;SDS011;9308;48.550;9.108;2022-12-07T05:56:00;14.93;;;13.33;;
18360;SDS011;9308;48.550;9.108;2022-12-07T05:58:25;18.30;;;15.10;;
18360;SDS011;9308;48.550;9.108;2022-12-07T06:01:09;16.33;;;13.87;;
18360;SDS011;9308;48.550;9.108;2022-12-07T06:03:35;16.70;;;14.90;;
18360;SDS011;9308;48.550;9.108;2022-12-07T06:06:00;15.53;;;13.93;;
18360;SDS011;9308;48.550;9.108;2022-12-07T06:08:26;18.03;;;13.23;;
18360;SDS011;9308;48.550;9.108;2022-12-07T06:10:51;16.07;;;14.00;;
18360;SDS011;9308;48.550;9.108;2022-12-07T06:13:37;15.87;;;14.20;;
18360;SDS011;9308;48.550;9.108;2022-12-07T06:16:02;17.07;;;15.20;;
18360;SDS011;9308;48.550;9.108;2022-12-07T06:18:28;19.93;;;15.30;;
18360;SDS011;9308;48.550;9.108;2022-12-07T06:20:54;15.00;;;12.70;;
18360;SDS011;9308;48.550;9.108;2022-12-07T06:23:19;14.33;;;12.90;;
18360;SDS011;9308;48.550;9.108;2022-12-07T06:25:45;16.10;;;13.33;;
18360;SDS011;9308;48.550;9.108;2022-12-07T06:28:11;15.60;;;13.30;;
18360;SDS011;9308;48.550;9.108;2022-12-07T06:30:36;16.10;;;13.10;;
18360;SDS011;9308;48.550;9.108;2022-12-07T06:33:01;17.03;;;15.13;;
18360;SDS011;9308;48.550;9.108;2022-12-07T06:35:27;16.73;;;14.83;;
18360;SDS011;9308;48.550;9.108;2022-12-07T06:37:52;18.23;;;15.07;;
18360;SDS011;9308;48.550;9.108;2022-12-07T06:40:18;15.70;;;14.00;;
18360;SDS011;9308;48.550;9.108;2022-12-07T06:42:43;15.90;;;13.77;;
18360;SDS011;9308;48.550;9.108;2022-12-07T06:45:09;14.53;;;12.87;;
18360;SDS011;9308;48.550;9.108;2022-12-07T06:47:35;17.03;;;14.43;;
18360;SDS011;9308;48.550;9.108;2022-12-07T06:50:00;16.40;;;14.67;;
18360;SDS011;9308;48.550;9.108;2022-12-07T06:52:26;15.50;;;13.93;;
18360;SDS011;9308;48.550;9.108;2022-12-07T06:54:51;15.53;;;13.87;;
18360;SDS011;9308;48.550;9.108;2022-12-07T06:57:17;18.57;;;15.20;;
18360;SDS011;9308;48.550;9.108;2022-12-07T06:59:42;24.73;;;17.60;;
18360;SDS011;9308;48.550;9.108;2022-12-07T07:02:08;24.57;;;19.93;;
18360;SDS011;9308;48.550;9.108;2022-12-07T07:04:34;17.77;;;14.90;;
18360;SDS011;9308;48.550;9.108;2022-12-07T07:07:00;15.30;;;13.00;;
18360;SDS011;9308;48.550;9.108;2022-12-07T07:09:25;18.77;;;15.83;;
18360;SDS011;9308;48.550;9.108;2022-12-07T07:11:51;15.87;;;14.20;;
18360;SDS011;9308;48.550;9.108;2022-12-07T07:14:16;15.50;;;13.47;;
18360;SDS011;9308;48.550;9.108;2022-12-07T07:16:44;15.70;;;12.37;;
18360;SDS011;9308;48.550;9.108;2022-12-07T07:19:09;14.33;;;12.70;;
18360;SDS011;9308;48.550;9.108;2022-12-07T07:21:36;13.00;;;11.60;;
18360;SDS011;9308;48.550;9.108;2022-12-07T07:24:02;14.20;;;12.10;;
18360;SDS011;9308;48.550;9.108;2022-12-07T07:26:27;14.30;;;12.70;;
18360;SDS011;9308;48.550;9.108;2022-12-07T07:28:52;12.90;;;11.60;;
18360;SDS011;9308;48.550;9.108;2022-12-07T07:31:18;14.60;;;11.93;;
18360;SDS011;9308;48.550;9.108;2022-12-07T07:33:45;13.43;;;11.80;;
18360;SDS011;9308;48.550;9.108;2022-12-07T07:36:11;12.97;;;11.40;;
18360;SDS011;9308;48.550;9.108;2022-12-07T07:38:36;15.60;;;12.67;;
18360;SDS011;9308;48.550;9.108;2022-12-07T07:41:02;17.13;;;13.30;;
18360;SDS011;9308;48.550;9.108;2022-12-07T07:43:27;15.47;;;13.07;;
18360;SDS011;9308;48.550;9.108;2022-12-07T07:45:53;13.30;;;11.97;;
18360;SDS011;9308;48.550;9.108;2022-12-07T07:48:18;15.90;;;14.00;;
18360;SDS011;9308;48.550;9.108;2022-12-07T07:50:44;14.27;;;12.87;;
18360;SDS011;9308;48.550;9.108;2022-12-07T07:53:09;16.03;;;14.33;;
18360;SDS011;9308;48.550;9.108;2022-12-07T07:55:35;17.70;;;15.60;;
18360;SDS011;9308;48.550;9.108;2022-12-07T07:58:00;16.57;;;14.00;;
18360;SDS011;9308;48.550;9.108;2022-12-07T08:00:26;16.73;;;14.73;;
18360;SDS011;9308;48.550;9.108;2022-12-07T08:02:51;17.97;;;16.07;;
18360;SDS011;9308;48.550;9.108;2022-12-07T08:05:16;16.93;;;15.13;;
18360;SDS011;9308;48.550;9.108;2022-12-07T08:07:42;17.30;;;15.50;;
18360;SDS011;9308;48.550;9.108;2022-12-07T08:10:09;17.77;;;15.93;;
18360;SDS011;9308;48.550;9.108;2022-12-07T08:12:37;17.33;;;15.47;;
18360;SDS011;9308;48.550;9.108;2022-12-07T08:15:26;15.77;;;14.10;;
18360;SDS011;9308;48.550;9.108;2022-12-07T08:17:53;16.50;;;14.33;;
18360;SDS011;9308;48.550;9.108;2022-12-07T08:20:19;16.13;;;14.50;;
18360;SDS011;9308;48.550;9.108;2022-12-07T08:22:44;17.03;;;14.97;;
18360;SDS011;9308;48.550;9.108;2022-12-07T08:25:10;15.83;;;13.90;;
18360;SDS011;9308;48.550;9.108;2022-12-07T08:27:35;15.03;;;13.43;;
18360;SDS011;9308;48.550;9.108;2022-12-07T08:30:01;16.00;;;14.47;;
18360;SDS011;9308;48.550;9.108;2022-12-07T08:32:26;16.23;;;14.07;;
18360;SDS011;9308;48.550;9.108;2022-12-07T08:34:52;17.13;;;14.73;;
18360;SDS011;9308;48.550;9.108;2022-12-07T08:37:17;16.03;;;14.40;;
18360;SDS011;9308;48.550;9.108;2022-12-07T08:39:43;15.87;;;14.00;;
18360;SDS011;9308;48.550;9.108;2022-12-07T08:42:08;15.00;;;13.33;;
18360;SDS011;9308;48.550;9.108;2022-12-07T08:44:34;15.00;;;13.50;;
18360;SDS011;9308;48.550;9.108;2022-12-07T08:47:00;16.33;;;13.07;;
18360;SDS011;9308;48.550;9.108;2022-12-07T08:49:39;15.00;;;13.50;;
18360;SDS011;9308;48.550;9.108;2022-12-07T08:52:06;15.53;;;13.43;;
18360;SDS011;9308;48.550;9.108;2022-12-07T08:54:33;15.03;;;13.43;;
18360;SDS011;9308;48.550;9.108;2022-12-07T08:57:01;14.87;;;13.37;;
18360;SDS011;9308;48.550;9.108;2022-12-07T08:59:27;15.77;;;14.07;;
18360;SDS011;9308;48.550;9.108;2022-12-07T09:01:53;17.40;;;13.83;;
18360;SDS011;9308;48.550;9.108;2022-12-07T09:04:19;15.63;;;13.60;;
18360;SDS011;9308;48.550;9.108;2022-12-07T09:06:45;15.07;;;13.20;;
18360;SDS011;9308;48.550;9.108;2022-12-07T09:09:11;16.63;;;14.83;;
18360;SDS011;9308;48.550;9.108;2022-12-07T09:11:38;15.70;;;12.70;;
18360;SDS011;9308;48.550;9.108;2022-12-07T09:14:04;15.03;;;13.43;;
18360;SDS011;9308;48.550;9.108;2022-12-07T09:16:30;13.90;;;11.80;;
18360;SDS011;9308;48.550;9.108;2022-12-07T09:18:56;12.43;;;11.17;;
18360;SDS011;9308;48.550;9.108;2022-12-07T09:21:21;13.50;;;12.20;;
18360;SDS011;9308;48.550;9.108;2022-12-07T09:23:47;13.23;;;11.73;;
18360;SDS011;9308;48.550;9.108;2022-12-07T09:26:12;12.77;;;11.37;;
18360;SDS011;9308;48.550;9.108;2022-12-07T09:28:37;13.33;;;11.60;;
18360;SDS011;9308;48.550;9.108;2022-12-07T09:31:03;11.70;;;10.70;;
18360;SDS011;9308;48.550;9.108;2022-12-07T09:33:30;14.07;;;11.60;;
18360;SDS011;9308;48.550;9.108;2022-12-07T09:35:56;13.57;;;11.20;;
18360;SDS011;9308;48.550;9.108;2022-12-07T09:38:21;11.67;;;10.47;;
18360;SDS011;9308;48.550;9.108;2022-12-07T09:40:47;11.90;;;10.70;;
18360;SDS011;9308;48.550;9.108;2022-12-07T09:43:17;12.37;;;10.20;;
18360;SDS011;9308;48.550;9.108;2022-12-07T09:45:44;11.47;;;10.40;;
18360;SDS011;9308;48.550;9.108;2022-12-07T09:48:16;12.27;;;11.17;;
18360;SDS011;9308;48.550;9.108;2022-12-07T09:50:44;13.90;;;12.50;;
18360;SDS011;9308;48.550;9.108;2022-12-07T09:53:12;11.90;;;10.70;;
18360;SDS011;9308;48.550;9.108;2022-12-07T09:55:41;11.50;;;10.40;;
18360;SDS011;9308;48.550;9.108;2022-12-07T09:58:19;11.67;;;10.50;;
18360;SDS011;9308;48.550;9.108;2022-12-07T10:00:47;12.33;;;11.00;;
18360;SDS011;9308;48.550;9.108;2022-12-07T10:03:13;12.57;;;11.00;;
18360;SDS011;9308;48.550;9.108;2022-12-07T10:05:45;13.70;;;12.30;;
18360;SDS011;9308;48.550;9.108;2022-12-07T10:08:13;12.67;;;11.40;;
18360;SDS011;9308;48.550;9.108;2022-12-07T10:10:42;11.27;;;10.17;;
18360;SDS011;9308;48.550;9.108;2022-12-07T10:13:11;10.87;;;9.87;;
18360;SDS011;9308;48.550;9.108;2022-12-07T10:15:41;11.67;;;10.40;;
18360;SDS011;9308;48.550;9.108;2022-12-07T10:21:09;10.00;;;9.10;;
18360;SDS011;9308;48.550;9.108;2022-12-07T10:23:42;10.77;;;9.47;;
18360;SDS011;9308;48.550;9.108;2022-12-07T10:26:32;10.17;;;9.07;;
18360;SDS011;9308;48.550;9.108;2022-12-07T10:29:22;10.13;;;8.70;;
18360;SDS011;9308;48.550;9.108;2022-12-07T10:34:31;10.93;;;9.93;;
18360;SDS011;9308;48.550;9.108;2022-12-07T10:42:16;11.13;;;10.00;;
18360;SDS011;9308;48.550;9.108;2022-12-07T10:44:49;11.70;;;10.47;;
18360;SDS011;9308;48.550;9.108;2022-12-07T10:47:20;10.53;;;9.00;;
18360;SDS011;9308;48.550;9.108;2022-12-07T10:55:16;9.67;;;8.67;;
18360;SDS011;9308;48.550;9.108;2022-12-07T11:00:43;11.37;;;10.27;;
18360;SDS011;9308;48.550;9.108;2022-12-07T11:03:33;10.10;;;9.10;;
18360;SDS011;9308;48.550;9.108;2022-12-07T11:06:23;10.57;;;9.53;;
18360;SDS011;9308;48.550;9.108;2022-12-07T11:09:24;9.80;;;8.80;;
18360;SDS011;9308;48.550;9.108;2022-12-07T11:12:04;10.70;;;9.70;;
18360;SDS011;9308;48.550;9.108;2022-12-07T11:14:33;10.50;;;9.00;;
18360;SDS011;9308;48.550;9.108;2022-12-07T11:17:17;10.33;;;9.23;;
18360;SDS011;9308;48.550;9.108;2022-12-07T11:25:35;10.23;;;9.23;;
18360;SDS011;9308;48.550;9.108;2022-12-07T11:33:42;10.03;;;9.03;;
18360;SDS011;9308;48.550;9.108;2022-12-07T11:36:24;10.00;;;8.93;;
18360;SDS011;9308;48.550;9.108;2022-12-07T11:39:00;9.20;;;8.20;;
18360;SDS011;9308;48.550;9.108;2022-12-07T11:41:33;9.03;;;8.13;;
18360;SDS011;9308;48.550;9.108;2022-12-07T11:44:05;10.47;;;9.50;;
18360;SDS011;9308;48.550;9.108;2022-12-07T11:49:37;11.23;;;9.83;;
18360;SDS011;9308;48.550;9.108;2022-12-07T11:52:40;13.57;;;11.90;;
18360;SDS011;9308;48.550;9.108;2022-12-07T11:55:27;9.30;;;8.40;;
18360;SDS011;9308;48.550;9.108;2022-12-07T11:58:14;10.23;;;9.23;;
18360;SDS011;9308;48.550;9.108;2022-12-07T12:00:52;8.50;;;7.67;;
18360;SDS011;9308;48.550;9.108;2022-12-07T12:03:30;9.30;;;8.50;;
18360;SDS011;9308;48.550;9.108;2022-12-07T12:06:02;10.17;;;9.17;;
18360;SDS011;9308;48.550;9.108;2022-12-07T12:08:29;11.67;;;8.70;;
18360;SDS011;9308;48.550;9.108;2022-12-07T12:16:19;9.23;;;8.33;;
18360;SDS011;9308;48.550;9.108;2022-12-07T12:19:03;10.00;;;9.00;;
18360;SDS011;9308;48.550;9.108;2022-12-07T12:21:37;10.10;;;8.67;;
18360;SDS011;9308;48.550;9.108;2022-12-07T12:24:14;8.80;;;7.90;;
18360;SDS011;9308;48.550;9.108;2022-12-07T12:26:48;9.73;;;8.60;;
18360;SDS011;9308;48.550;9.108;2022-12-07T12:29:21;10.57;;;8.80;;
18360;SDS011;9308;48.550;9.108;2022-12-07T12:38:19;8.73;;;7.83;;
18360;SDS011;9308;48.550;9.108;2022-12-07T12:45:18;9.67;;;7.83;;
18360;SDS011;9308;48.550;9.108;2022-12-07T12:47:54;9.13;;;8.20;;
18360;SDS011;9308;48.550;9.108;2022-12-07T12:50:27;8.23;;;7.40;;
18360;SDS011;9308;48.550;9.108;2022-12-07T12:53:05;10.10;;;8.20;;
18360;SDS011;9308;48.550;9.108;2022-12-07T12:55:46;9.00;;;8.13;;
18360;SDS011;9308;48.550;9.108;2022-12-07T13:00:43;8.67;;;7.77;;
18360;SDS011;9308;48.550;9.108;2022-12-07T13:03:27;9.63;;;8.10;;
18360;SDS011;9308;48.550;9.108;2022-12-07T13:08:58;9.10;;;8.00;;
18360;SDS011;9308;48.550;9.108;2022-12-07T13:11:28;8.23;;;7.43;;
18360;SDS011;9308;48.550;9.108;2022-12-07T13:19:57;10.10;;;9.10;;
18360;SDS011;9308;48.550;9.108;2022-12-07T13:28:00;9.37;;;8.43;;
18360;SDS011;9308;48.550;9.108;2022-12-07T13:30:32;9.73;;;8.53;;
18360;SDS011;9308;48.550;9.108;2022-12-07T13:33:08;9.17;;;8.17;;
18360;SDS011;9308;48.550;9.108;2022-12-07T13:35:35;10.57;;;9.47;;
18360;SDS011;9308;48.550;9.108;2022-12-07T13:38:05;10.13;;;9.07;;
18360;SDS011;9308;48.550;9.108;2022-12-07T13:40:40;7.87;;;7.17;;
18360;SDS011;9308;48.550;9.108;2022-12-07T13:43:11;10.00;;;8.37;;
18360;SDS011;9308;48.550;9.108;2022-12-07T13:45:39;10.70;;;8.40;;
18360;SDS011;9308;48.550;9.108;2022-12-07T13:48:31;9.77;;;8.87;;
18360;SDS011;9308;48.550;9.108;2022-12-07T13:51:21;9.23;;;8.40;;
18360;SDS011;9308;48.550;9.108;2022-12-07T13:53:56;10.03;;;8.77;;
18360;SDS011;9308;48.550;9.108;2022-12-07T13:56:27;10.03;;;8.40;;
18360;SDS011;9308;48.550;9.108;2022-12-07T13:58:57;13.93;;;9.70;;
18360;SDS011;9308;48.550;9.108;2022-12-07T14:01:23;10.37;;;9.07;;
18360;SDS011;9308;48.550;9.108;2022-12-07T14:03:49;10.87;;;9.77;;
18360;SDS011;9308;48.550;9.108;2022-12-07T14:06:25;11.13;;;9.23;;
18360;SDS011;9308;48.550;9.108;2022-12-07T14:09:08;10.63;;;8.43;;
18360;SDS011;9308;48.550;9.108;2022-12-07T14:11:45;9.53;;;8.63;;
18360;SDS011;9308;48.550;9.108;2022-12-07T14:14:14;9.43;;;8.13;;
18360;SDS011;9308;48.550;9.108;2022-12-07T14:16:42;10.13;;;8.90;;
18360;SDS011;9308;48.550;9.108;2022-12-07T14:25:22;10.77;;;8.60;;
18360;SDS011;9308;48.550;9.108;2022-12-07T14:27:59;11.60;;;9.50;;
18360;SDS011;9308;48.550;9.108;2022-12-07T14:30:32;10.17;;;9.10;;
18360;SDS011;9308;48.550;9.108;2022-12-07T14:33:03;9.90;;;8.47;;
18360;SDS011;9308;48.550;9.108;2022-12-07T14:35:29;12.00;;;10.77;;
18360;SDS011;9308;48.550;9.108;2022-12-07T14:37:56;10.87;;;9.77;;
18360;SDS011;9308;48.550;9.108;2022-12-07T14:40:22;10.23;;;8.77;;
18360;SDS011;9308;48.550;9.108;2022-12-07T14:42:50;10.90;;;9.80;;
18360;SDS011;9308;48.550;9.108;2022-12-07T14:45:19;10.37;;;9.27;;
18360;SDS011;9308;48.550;9.108;2022-12-07T14:47:46;11.80;;;10.23;;
18360;SDS011;9308;48.550;9.108;2022-12-07T14:50:13;9.20;;;8.40;;
18360;SDS011;9308;48.550;9.108;2022-12-07T14:52:40;8.70;;;7.80;;
18360;SDS011;9308;48.550;9.108;2022-12-07T14:55:20;7.97;;;7.27;;
18360;SDS011;9308;48.550;9.108;2022-12-07T14:57:47;7.97;;;7.23;;
18360;SDS011;9308;48.550;9.108;2022-12-07T15:00:14;7.97;;;7.10;;
18360;SDS011;9308;48.550;9.108;2022-12-07T15:02:42;10.07;;;9.07;;
18360;SDS011;9308;48.550;9.108;2022-12-07T15:05:09;10.47;;;8.80;;
18360;SDS011;9308;48.550;9.108;2022-12-07T15:07:35;7.80;;;7.10;;
18360;SDS011;9308;48.550;9.108;2022-12-07T15:10:00;8.00;;;7.20;;
18360;SDS011;9308;48.550;9.108;2022-12-07T15:12:26;9.13;;;8.13;;
18360;SDS011;9308;48.550;9.108;2022-12-07T15:14:52;9.23;;;8.27;;
18360;SDS011;9308;48.550;9.108;2022-12-07T15:17:17;9.10;;;8.20;;
18360;SDS011;9308;48.550;9.108;2022-12-07T15:19:43;10.70;;;9.27;;
18360;SDS011;9308;48.550;9.108;2022-12-07T15:22:08;12.90;;;8.80;;
18360;SDS011;9308;48.550;9.108;2022-12-07T15:24:36;10.23;;;9.23;;
18360;SDS011;9308;48.550;9.108;2022-12-07T15:27:02;14.90;;;11.63;;
18360;SDS011;9308;48.550;9.108;2022-12-07T15:29:28;10.13;;;8.40;;
18360;SDS011;9308;48.550;9.108;2022-12-07T15:31:54;7.17;;;6.50;;
18360;SDS011;9308;48.550;9.108;2022-12-07T15:34:20;6.47;;;5.87;;
18360;SDS011;9308;48.550;9.108;2022-12-07T15:36:45;7.03;;;6.33;;
18360;SDS011;9308;48.550;9.108;2022-12-07T15:39:11;7.27;;;6.33;;
18360;SDS011;9308;48.550;9.108;2022-12-07T15:41:36;6.90;;;6.20;;
18360;SDS011;9308;48.550;9.108;2022-12-07T15:44:02;7.20;;;6.60;;
18360;SDS011;9308;48.550;9.108;2022-12-07T15:46:46;7.40;;;6.37;;
18360;SDS011;9308;48.550;9.108;2022-12-07T15:49:13;6.80;;;6.03;;
18360;SDS011;9308;48.550;9.108;2022-12-07T15:51:41;7.60;;;6.90;;
18360;SDS011;9308;48.550;9.108;2022-12-07T15:54:12;8.13;;;7.33;;
18360;SDS011;9308;48.550;9.108;2022-12-07T15:56:43;8.30;;;7.50;;
18360;SDS011;9308;48.550;9.108;2022-12-07T15:59:08;7.20;;;6.60;;
18360;SDS011;9308;48.550;9.108;2022-12-07T16:01:34;6.70;;;6.07;;
18360;SDS011;9308;48.550;9.108;2022-12-07T16:03:59;8.47;;;7.37;;
18360;SDS011;9308;48.550;9.108;2022-12-07T16:06:25;11.90;;;9.87;;
18360;SDS011;9308;48.550;9.108;2022-12-07T16:08:50;16.43;;;13.00;;
18360;SDS011;9308;48.550;9.108;2022-12-07T16:11:16;12.90;;;10.50;;
18360;SDS011;9308;48.550;9.108;2022-12-07T16:13:41;10.07;;;9.20;;
18360;SDS011;9308;48.550;9.108;2022-12-07T16:16:08;9.50;;;8.57;;
18360;SDS011;9308;48.550;9.108;2022-12-07T16:18:36;10.50;;;9.50;;
18360;SDS011;9308;48.550;9.108;2022-12-07T16:21:01;13.27;;;11.97;;
18360;SDS011;9308;48.550;9.108;2022-12-07T16:23:27;10.90;;;9.80;;
18360;SDS011;9308;48.550;9.108;2022-12-07T16:25:53;8.30;;;7.67;;
18360;SDS011;9308;48.550;9.108;2022-12-07T16:28:19;8.03;;;7.23;;